Time;durP1;ratioP1;P1;durP2;ratioP2;P2;SDS_P1;SDS_P2;PMS_P1;PMS_P2;Temp;Humidity;BMP_temperature;BMP_pressure;BME280_temperature;BME280_humidity;BME280_pressure;Samples;Min_cycle;Max_cycle;Signal;HPM_P1;HPM_P2
2023/04/05 05:00:14;;;;;;;8.47;7.63;;;3.00;97.20;;;;;;1701527;29;20191;-68
2023/04/05 05:01:07;;;;;;;8.35;7.57;;;3.00;97.20;;;;;;1700557;29;20669;-69
2023/04/05 05:01:59;;;;;;;8.23;7.35;;;3.00;97.20;;;;;;1700638;29;20214;-68
2023/04/05 05:02:51;;;;;;;7.80;7.10;;;3.10;97.20;;;;;;1700593;29;20673;-69
2023/04/05 05:03:43;;;;;;;8.80;7.35;;;3.10;97.20;;;;;;1700522;29;20195;-68
2023/04/05 05:04:34;;;;;;;9.10;7.45;;;3.00;97.20;;;;;;1700546;29;20588;-68
2023/04/05 05:05:26;;;;;;;8.47;7.57;;;3.00;97.20;;;;;;1700605;29;20574;-69
2023/04/05 05:06:18;;;;;;;8.45;7.63;;;3.00;97.20;;;;;;1700569;29;20211;-68
2023/04/05 05:07:10;;;;;;;8.50;7.80;;;3.00;97.20;;;;;;1700482;29;20245;-69
2023/04/05 05:08:01;;;;;;;9.43;8.50;;;3.00;97.20;;;;;;1703888;29;20210;-68
2023/04/05 05:08:52;;;;;;;8.87;8.07;;;3.00;97.20;;;;;;1700274;29;20198;-68
2023/04/05 05:09:44;;;;;;;8.68;7.88;;;3.00;97.20;;;;;;1700427;29;20207;-69
2023/04/05 05:10:36;;;;;;;8.95;8.15;;;3.00;97.20;;;;;;1701477;29;20716;-69
2023/04/05 05:11:27;;;;;;;8.43;7.65;;;3.00;97.20;;;;;;1704796;29;20199;-69
2023/04/05 05:12:20;;;;;;;9.07;8.27;;;3.00;97.20;;;;;;1706787;29;20202;-69
2023/04/05 05:13:12;;;;;;;9.55;8.25;;;3.10;97.20;;;;;;1705526;29;20668;-69
2023/04/05 05:14:03;;;;;;;9.07;8.27;;;3.10;97.20;;;;;;1707135;29;20202;-69
2023/04/05 05:14:54;;;;;;;7.57;6.82;;;3.10;97.20;;;;;;1707168;29;20627;-69
2023/04/05 05:15:47;;;;;;;8.03;7.23;;;3.10;97.20;;;;;;1705588;29;20225;-69
2023/04/05 05:16:38;;;;;;;9.90;8.30;;;3.10;97.20;;;;;;1703966;28;20259;-69
2023/04/05 05:17:31;;;;;;;8.73;6.80;;;3.10;97.20;;;;;;1707242;28;20257;-69
2023/04/05 05:18:21;;;;;;;8.85;7.43;;;3.10;97.20;;;;;;1702461;29;20203;-69
2023/04/05 05:19:13;;;;;;;8.93;6.73;;;3.10;97.20;;;;;;1700818;29;20262;-70
2023/04/05 05:20:09;;;;;;;8.02;7.22;;;3.20;97.20;;;;;;1701890;29;20215;-69
2023/04/05 05:21:01;;;;;;;16.65;6.82;;;3.20;97.20;;;;;;1704079;29;20225;-69
2023/04/05 05:21:52;;;;;;;7.97;6.10;;;3.20;97.20;;;;;;1708506;28;20669;-69
2023/04/05 05:22:45;;;;;;;6.95;6.28;;;3.20;97.20;;;;;;1708365;29;20206;-69
2023/04/05 05:23:36;;;;;;;7.18;6.47;;;3.30;97.20;;;;;;1707489;29;20277;-68
2023/04/05 05:24:27;;;;;;;7.37;6.70;;;3.30;97.20;;;;;;1701667;29;20254;-68
2023/04/05 05:25:19;;;;;;;7.50;6.80;;;3.30;97.20;;;;;;1701641;29;20199;-69
2023/04/05 05:26:11;;;;;;;7.72;7.03;;;3.30;97.20;;;;;;1704960;29;20324;-69
2023/04/05 05:27:02;;;;;;;7.90;7.20;;;3.40;97.20;;;;;;1708380;29;20661;-69
2023/04/05 05:27:54;;;;;;;9.10;8.30;;;3.40;97.20;;;;;;1708440;29;20778;-68
2023/04/05 05:28:45;;;;;;;9.63;7.38;;;3.40;97.20;;;;;;1708177;29;20206;-68
2023/04/05 05:29:37;;;;;;;10.20;7.75;;;3.40;97.20;;;;;;1708267;29;20257;-68
2023/04/05 05:30:28;;;;;;;8.15;7.43;;;3.40;97.20;;;;;;1708225;29;20206;-68
2023/04/05 05:31:21;;;;;;;8.63;7.55;;;3.40;97.20;;;;;;1708335;29;20657;-69
2023/04/05 05:32:14;;;;;;;8.63;7.82;;;3.50;97.20;;;;;;1708482;29;20211;-68
2023/04/05 05:33:06;;;;;;;8.10;7.10;;;3.50;97.20;;;;;;1708283;29;20233;-69
2023/04/05 05:33:57;;;;;;;11.13;7.88;;;3.50;97.20;;;;;;1707629;29;20313;-69
2023/04/05 05:34:49;;;;;;;10.80;8.00;;;3.50;97.20;;;;;;1708398;29;20210;-69
2023/04/05 05:35:39;;;;;;;8.98;7.93;;;3.50;97.20;;;;;;1708221;29;20210;-69
2023/04/05 05:36:32;;;;;;;8.80;7.90;;;3.50;97.20;;;;;;1702381;29;20211;-69
2023/04/05 05:37:29;;;;;;;8.70;7.90;;;3.50;97.20;;;;;;1706260;29;20198;-69
2023/04/05 05:38:20;;;;;;;10.70;8.05;;;3.60;97.20;;;;;;1707326;29;20635;-69
2023/04/05 05:39:11;;;;;;;9.98;8.70;;;3.60;97.20;;;;;;1708313;29;20246;-69
2023/04/05 05:40:04;;;;;;;10.10;8.13;;;3.60;97.20;;;;;;1708233;29;20199;-69
2023/04/05 05:40:55;;;;;;;9.38;8.40;;;3.60;97.20;;;;;;1708373;29;20876;-68
2023/04/05 05:41:48;;;;;;;10.63;9.25;;;3.60;97.20;;;;;;1703079;28;20661;-69
2023/04/05 05:42:39;;;;;;;10.85;9.75;;;3.60;97.20;;;;;;1703480;29;20206;-69
2023/04/05 05:43:30;;;;;;;11.07;9.50;;;3.60;97.20;;;;;;1703414;29;20275;-69
2023/04/05 05:44:21;;;;;;;13.18;9.70;;;3.60;97.20;;;;;;1707477;29;20210;-68
2023/04/05 05:45:13;;;;;;;11.13;9.63;;;3.60;97.20;;;;;;1708066;29;20206;-69
2023/04/05 05:46:04;;;;;;;12.73;9.88;;;3.60;97.20;;;;;;1707477;29;20195;-69
2023/04/05 05:46:57;;;;;;;12.93;10.80;;;3.60;97.20;;;;;;1708102;29;20209;-69
2023/04/05 05:47:49;;;;;;;12.52;9.57;;;3.60;97.20;;;;;;1708159;29;20211;-69
2023/04/05 05:48:41;;;;;;;13.90;10.50;;;3.70;97.20;;;;;;1706914;29;20266;-68
2023/04/05 05:49:32;;;;;;;15.35;10.85;;;3.70;97.20;;;;;;1708123;28;20210;-69
2023/04/05 05:50:23;;;;;;;12.80;10.07;;;3.70;97.20;;;;;;1708058;29;20206;-69
2023/04/05 05:51:14;;;;;;;12.27;9.15;;;3.80;97.20;;;;;;1707999;29;20206;-69
2023/04/05 05:52:06;;;;;;;10.73;9.10;;;3.80;97.20;;;;;;1708128;29;20213;-69
2023/04/05 05:52:57;;;;;;;10.32;9.18;;;3.80;97.20;;;;;;1707837;29;20788;-69
2023/04/05 05:53:49;;;;;;;10.40;9.30;;;3.90;97.20;;;;;;1707996;29;20624;-69
2023/04/05 05:54:40;;;;;;;8.90;8.00;;;3.90;97.20;;;;;;1707942;29;20453;-68
2023/04/05 05:55:31;;;;;;;9.30;8.40;;;3.90;97.20;;;;;;1708049;29;20695;-70
2023/04/05 05:56:22;;;;;;;10.32;8.60;;;4.00;97.20;;;;;;1706824;29;20486;-69
2023/04/05 05:57:14;;;;;;;9.10;8.30;;;4.00;97.20;;;;;;1707715;29;20199;-69
2023/04/05 05:58:05;;;;;;;8.98;8.07;;;4.10;97.20;;;;;;1707660;29;20457;-69
2023/04/05 05:58:58;;;;;;;8.67;7.87;;;4.10;97.20;;;;;;1707699;29;20302;-69
2023/04/05 05:59:48;;;;;;;9.52;8.55;;;4.10;97.20;;;;;;1707952;29;20454;-70
2023/04/05 06:00:40;;;;;;;9.07;8.13;;;4.10;97.20;;;;;;1702793;29;20214;-69
2023/04/05 06:01:33;;;;;;;9.57;8.57;;;4.20;97.20;;;;;;1701252;29;20215;-69
2023/04/05 06:02:27;;;;;;;9.52;8.27;;;4.20;97.20;;;;;;1702488;29;20202;-69
2023/04/05 06:03:18;;;;;;;11.00;9.77;;;4.20;97.20;;;;;;1707712;29;20210;-70
2023/04/05 06:04:09;;;;;;;11.97;10.53;;;4.20;97.20;;;;;;1708024;28;20261;-69
2023/04/05 06:05:00;;;;;;;10.63;9.35;;;4.20;97.20;;;;;;1707813;28;20940;-69
2023/04/05 06:05:52;;;;;;;11.65;10.68;;;4.30;97.20;;;;;;1707411;29;20199;-69
2023/04/05 06:06:45;;;;;;;10.90;9.73;;;4.20;97.20;;;;;;1706814;29;20202;-68
2023/04/05 06:07:37;;;;;;;11.05;9.95;;;4.20;97.20;;;;;;1706240;29;20645;-69
2023/04/05 06:08:28;;;;;;;12.43;8.55;;;4.30;97.20;;;;;;1703838;29;20721;-69
2023/04/05 06:09:21;;;;;;;10.20;9.27;;;4.30;97.20;;;;;;1701998;29;21721;-68
2023/04/05 06:10:13;;;;;;;10.70;9.70;;;4.30;97.20;;;;;;1701243;29;20908;-67
2023/04/05 06:11:05;;;;;;;10.18;9.18;;;4.30;97.20;;;;;;1701391;29;20665;-67
2023/04/05 06:11:57;;;;;;;9.95;8.95;;;4.30;97.20;;;;;;1701326;29;20203;-68
2023/04/05 06:12:50;;;;;;;9.95;8.95;;;4.30;97.20;;;;;;1701174;29;20639;-69
2023/04/05 06:13:41;;;;;;;11.05;8.57;;;4.30;97.20;;;;;;1704984;29;20203;-69
2023/04/05 06:14:33;;;;;;;9.97;9.00;;;4.40;97.20;;;;;;1701369;29;20289;-68
2023/04/05 06:15:24;;;;;;;10.32;9.25;;;4.40;97.20;;;;;;1704301;29;21023;-69
2023/04/05 06:16:15;;;;;;;10.27;9.27;;;4.40;97.20;;;;;;1707016;29;20767;-68
2023/04/05 06:17:06;;;;;;;10.98;9.90;;;4.40;97.20;;;;;;1706512;29;20461;-68
2023/04/05 06:17:59;;;;;;;10.50;9.50;;;4.40;97.20;;;;;;1707896;29;20206;-68
2023/04/05 06:18:50;;;;;;;10.13;9.15;;;4.40;97.20;;;;;;1704393;28;20459;-68
2023/04/05 06:19:42;;;;;;;10.03;8.63;;;4.40;97.20;;;;;;1701192;29;20242;-68
2023/04/05 06:20:34;;;;;;;11.38;10.23;;;4.40;97.20;;;;;;1701137;29;20467;-68
2023/04/05 06:21:26;;;;;;;10.88;9.88;;;4.50;97.20;;;;;;1701832;29;20199;-68
2023/04/05 06:22:17;;;;;;;10.82;9.73;;;4.50;97.20;;;;;;1707604;29;20293;-68
2023/04/05 06:23:09;;;;;;;9.60;8.70;;;4.50;97.20;;;;;;1707500;29;20194;-68
2023/04/05 06:24:00;;;;;;;10.27;9.27;;;4.60;97.20;;;;;;1707894;29;20203;-70
2023/04/05 06:24:52;;;;;;;10.50;9.50;;;4.60;97.20;;;;;;1707788;29;20297;-68
2023/04/05 06:25:43;;;;;;;9.20;8.30;;;4.70;97.20;;;;;;1707747;29;20206;-69
2023/04/05 06:26:35;;;;;;;10.10;9.10;;;4.70;97.20;;;;;;1705644;29;20610;-69
2023/04/05 06:27:26;;;;;;;9.73;8.77;;;4.70;97.20;;;;;;1704186;29;20592;-69
2023/04/05 06:28:18;;;;;;;9.10;8.20;;;4.80;97.20;;;;;;1703555;29;20249;-69
2023/04/05 06:29:09;;;;;;;10.00;9.10;;;4.80;97.20;;;;;;1703157;29;20492;-68
2023/04/05 06:30:00;;;;;;;9.77;8.80;;;4.80;97.20;;;;;;1706523;29;20226;-68
2023/04/05 06:30:56;;;;;;;10.38;8.07;;;4.80;97.20;;;;;;1706651;28;20239;-69
2023/04/05 06:31:48;;;;;;;9.63;8.70;;;4.90;97.20;;;;;;1707727;29;20202;-68
2023/04/05 06:32:39;;;;;;;12.13;8.93;;;4.90;97.20;;;;;;1707533;29;20210;-69
2023/04/05 06:33:33;;;;;;;11.47;9.50;;;4.90;97.20;;;;;;1707916;29;20230;-69
2023/04/05 06:34:24;;;;;;;10.20;9.25;;;5.00;97.20;;;;;;1707731;28;20837;-68
2023/04/05 06:35:15;;;;;;;9.93;8.25;;;5.00;97.20;;;;;;1707821;28;20859;-69
2023/04/05 06:36:08;;;;;;;10.32;9.30;;;5.00;97.20;;;;;;1706826;29;20676;-69
2023/04/05 06:36:58;;;;;;;12.40;10.45;;;5.00;97.20;;;;;;1707677;29;20211;-69
2023/04/05 06:37:50;;;;;;;10.77;8.80;;;5.00;97.20;;;;;;1707706;29;20213;-69
2023/04/05 06:38:41;;;;;;;11.48;10.20;;;5.10;97.20;;;;;;1707009;28;20457;-69
2023/04/05 06:39:33;;;;;;;13.30;10.57;;;5.10;97.20;;;;;;1706545;29;20668;-69
2023/04/05 06:40:24;;;;;;;10.38;9.48;;;5.10;97.20;;;;;;1706890;29;20453;-69
2023/04/05 06:41:16;;;;;;;11.00;9.90;;;5.20;97.20;;;;;;1706840;29;20206;-69
2023/04/05 06:42:07;;;;;;;10.98;9.55;;;5.20;97.20;;;;;;1707620;29;20539;-69
2023/04/05 06:42:58;;;;;;;10.43;9.07;;;5.20;97.20;;;;;;1707460;29;20198;-69
2023/04/05 06:43:49;;;;;;;10.45;9.45;;;5.20;97.20;;;;;;1707665;29;20461;-69
2023/04/05 06:44:41;;;;;;;11.48;10.35;;;5.20;97.20;;;;;;1707696;28;20199;-69
2023/04/05 06:45:32;;;;;;;11.48;10.35;;;5.30;97.20;;;;;;1707825;29;20221;-69
2023/04/05 06:46:25;;;;;;;10.35;9.25;;;5.30;97.20;;;;;;1707267;29;20210;-69
2023/04/05 06:47:16;;;;;;;11.00;9.80;;;5.30;97.20;;;;;;1706930;28;20293;-69
2023/04/05 06:48:08;;;;;;;10.97;9.87;;;5.40;97.20;;;;;;1706530;29;20501;-69
2023/04/05 06:49:00;;;;;;;10.50;9.60;;;5.40;97.20;;;;;;1707266;29;20695;-69
2023/04/05 06:49:52;;;;;;;11.85;9.60;;;5.50;97.20;;;;;;1707569;29;20210;-69
2023/04/05 06:50:44;;;;;;;13.35;10.40;;;5.50;97.20;;;;;;1702209;29;20219;-69
2023/04/05 06:51:36;;;;;;;10.57;9.48;;;5.50;97.20;;;;;;1701231;29;20285;-69
2023/04/05 06:52:26;;;;;;;10.68;9.40;;;5.60;97.20;;;;;;1700985;29;20215;-69
2023/04/05 06:53:19;;;;;;;11.30;10.20;;;5.60;97.20;;;;;;1700852;29;20311;-69
2023/04/05 06:54:10;;;;;;;11.48;9.75;;;5.60;97.20;;;;;;1701041;29;20446;-69
2023/04/05 06:55:03;;;;;;;11.52;10.35;;;5.70;97.20;;;;;;1700997;29;20207;-69
2023/04/05 06:55:55;;;;;;;10.77;9.50;;;5.70;97.20;;;;;;1700959;29;20210;-70
2023/04/05 06:56:47;;;;;;;12.65;9.82;;;5.80;97.20;;;;;;1701014;29;20231;-69
2023/04/05 06:57:38;;;;;;;10.73;9.57;;;5.80;97.20;;;;;;1701036;29;20215;-68
2023/04/05 06:58:30;;;;;;;10.50;9.40;;;5.80;97.20;;;;;;1700581;29;20245;-69
2023/04/05 06:59:20;;;;;;;17.77;10.40;;;5.80;97.20;;;;;;1700860;29;20513;-69
2023/04/05 07:00:14;;;;;;;10.77;9.20;;;5.80;97.20;;;;;;1701113;29;20200;-69
2023/04/05 07:01:06;;;;;;;15.27;10.23;;;5.80;97.20;;;;;;1701006;29;20813;-69
2023/04/05 07:01:58;;;;;;;12.13;10.40;;;5.90;97.20;;;;;;1701001;29;20211;-69
2023/04/05 07:02:49;;;;;;;11.13;9.95;;;6.00;97.20;;;;;;1705885;29;20221;-69
2023/04/05 07:03:40;;;;;;;12.10;10.27;;;6.00;97.20;;;;;;1707122;29;20198;-69
2023/04/05 07:04:35;;;;;;;14.02;10.30;;;6.10;97.20;;;;;;1707327;29;20450;-69
2023/04/05 07:05:26;;;;;;;10.38;9.48;;;6.20;97.20;;;;;;1707577;29;20207;-69
2023/04/05 07:06:18;;;;;;;15.57;9.60;;;6.30;97.20;;;;;;1707571;29;20230;-69
2023/04/05 07:07:09;;;;;;;11.30;9.68;;;6.40;97.20;;;;;;1707603;29;20457;-69
2023/04/05 07:08:01;;;;;;;10.93;9.60;;;6.50;97.20;;;;;;1707470;29;20230;-69
2023/04/05 07:08:52;;;;;;;18.35;9.75;;;6.50;97.20;;;;;;1707096;29;20457;-69
2023/04/05 07:09:44;;;;;;;13.48;10.05;;;6.50;97.20;;;;;;1707254;28;20202;-69
2023/04/05 07:10:38;;;;;;;13.05;9.73;;;6.60;97.20;;;;;;1707478;29;20230;-69
2023/04/05 07:11:31;;;;;;;11.18;10.02;;;6.60;97.20;;;;;;1707530;28;20206;-69
2023/04/05 07:12:22;;;;;;;12.70;10.35;;;6.70;97.20;;;;;;1707584;29;20214;-69
2023/04/05 07:13:14;;;;;;;12.10;10.13;;;6.70;97.20;;;;;;1707412;29;20206;-69
2023/04/05 07:14:05;;;;;;;11.10;10.02;;;6.80;97.20;;;;;;1707492;29;20199;-69
2023/04/05 07:14:59;;;;;;;14.13;10.27;;;6.80;97.20;;;;;;1707392;29;20243;-69
2023/04/05 07:15:50;;;;;;;23.58;10.85;;;6.80;97.20;;;;;;1707577;29;20505;-69
2023/04/05 07:16:42;;;;;;;14.40;11.20;;;6.80;97.20;;;;;;1703433;29;20226;-69
2023/04/05 07:17:32;;;;;;;11.50;10.07;;;6.90;97.20;;;;;;1700890;29;20207;-69
2023/04/05 07:18:24;;;;;;;14.50;10.70;;;6.90;97.20;;;;;;1700464;29;20203;-69
2023/04/05 07:19:15;;;;;;;12.77;11.27;;;6.90;97.20;;;;;;1700942;29;20253;-70
2023/04/05 07:20:09;;;;;;;14.27;10.80;;;7.00;97.20;;;;;;1700967;29;20716;-69
2023/04/05 07:21:00;;;;;;;20.55;11.10;;;7.10;97.20;;;;;;1700474;29;20238;-69
2023/04/05 07:21:52;;;;;;;10.73;9.43;;;7.20;97.20;;;;;;1700495;29;20207;-69
2023/04/05 07:22:43;;;;;;;10.50;9.20;;;7.20;97.20;;;;;;1700052;29;20841;-69
2023/04/05 07:23:35;;;;;;;12.27;10.10;;;7.30;97.20;;;;;;1700263;29;20242;-69
2023/04/05 07:24:25;;;;;;;12.68;10.20;;;7.40;97.20;;;;;;1700298;29;20234;-69
2023/04/05 07:25:17;;;;;;;12.97;10.60;;;7.50;97.20;;;;;;1700802;29;20229;-69
2023/04/05 07:26:08;;;;;;;10.60;9.60;;;7.50;97.20;;;;;;1700907;29;20677;-69
2023/04/05 07:27:00;;;;;;;15.10;10.40;;;7.60;97.20;;;;;;1700973;29;20666;-69
2023/04/05 07:27:51;;;;;;;11.35;10.23;;;7.70;97.20;;;;;;1700984;29;20217;-69
2023/04/05 07:28:43;;;;;;;12.43;10.33;;;7.80;97.20;;;;;;1700372;29;20235;-69
2023/04/05 07:29:37;;;;;;;10.50;9.48;;;7.90;97.20;;;;;;1700881;29;20214;-69
2023/04/05 07:30:30;;;;;;;16.35;11.63;;;7.90;97.20;;;;;;1700760;29;20207;-69
2023/04/05 07:31:21;;;;;;;11.27;10.15;;;8.00;97.20;;;;;;1700975;29;20668;-69
2023/04/05 07:32:13;;;;;;;12.03;10.33;;;8.00;97.20;;;;;;1701034;29;20621;-69
2023/04/05 07:33:03;;;;;;;13.43;9.98;;;8.00;97.20;;;;;;1705675;29;20242;-69
2023/04/05 07:33:56;;;;;;;16.43;9.37;;;8.10;97.20;;;;;;1707548;29;20219;-69
2023/04/05 07:34:48;;;;;;;10.68;9.57;;;8.20;97.20;;;;;;1707600;29;20670;-69
2023/04/05 07:35:41;;;;;;;11.00;9.90;;;8.20;97.20;;;;;;1707482;29;20206;-69
2023/04/05 07:36:32;;;;;;;12.45;9.88;;;8.30;97.20;;;;;;1707427;29;20697;-69
2023/04/05 07:37:26;;;;;;;10.10;9.10;;;8.30;97.20;;;;;;1707483;29;20646;-69
2023/04/05 07:38:16;;;;;;;12.60;9.25;;;8.40;97.20;;;;;;1706979;29;20458;-69
2023/04/05 07:39:08;;;;;;;12.73;9.63;;;8.40;97.20;;;;;;1707529;28;20203;-69
2023/04/05 07:39:59;;;;;;;11.02;10.02;;;8.40;97.20;;;;;;1707242;29;20202;-69
2023/04/05 07:40:51;;;;;;;12.80;9.40;;;8.50;97.20;;;;;;1707487;28;20226;-69
2023/04/05 07:41:42;;;;;;;12.60;10.00;;;8.60;97.20;;;;;;1707414;28;20221;-69
2023/04/05 07:42:34;;;;;;;12.73;9.50;;;8.70;97.20;;;;;;1707116;28;20213;-70
2023/04/05 07:43:24;;;;;;;9.80;8.90;;;8.70;97.20;;;;;;1707361;29;20585;-69
2023/04/05 07:44:16;;;;;;;10.53;9.40;;;8.80;97.20;;;;;;1707378;29;20599;-69
2023/04/05 07:45:07;;;;;;;11.93;9.93;;;8.90;97.20;;;;;;1707453;29;20991;-70
2023/04/05 07:46:03;;;;;;;12.85;9.77;;;8.90;97.20;;;;;;1707416;28;20246;-70
2023/04/05 07:46:53;;;;;;;15.10;9.32;;;9.00;97.20;;;;;;1707492;29;20396;-69
2023/04/05 07:47:46;;;;;;;10.43;8.77;;;9.10;97.20;;;;;;1707497;29;20330;-69
2023/04/05 07:48:36;;;;;;;11.77;9.23;;;9.10;97.20;;;;;;1706963;28;20748;-69
2023/04/05 07:49:29;;;;;;;9.80;8.63;;;9.20;97.20;;;;;;1702862;29;20737;-69
2023/04/05 07:50:20;;;;;;;11.98;7.75;;;9.30;97.20;;;;;;1700762;29;20206;-69
2023/04/05 07:51:13;;;;;;;9.30;8.20;;;9.30;97.20;;;;;;1700867;29;20234;-69
2023/04/05 07:52:05;;;;;;;10.82;9.02;;;9.40;97.20;;;;;;1700862;29;20625;-70
2023/04/05 07:52:56;;;;;;;10.38;7.95;;;9.50;97.20;;;;;;1700593;29;20203;-69
2023/04/05 07:53:48;;;;;;;8.90;8.10;;;9.50;97.20;;;;;;1700756;29;20214;-70
2023/04/05 07:54:42;;;;;;;9.10;8.30;;;9.60;97.20;;;;;;1700765;29;20199;-70
2023/04/05 07:55:33;;;;;;;9.30;8.40;;;9.70;97.20;;;;;;1700878;29;20301;-69
2023/04/05 07:56:24;;;;;;;8.97;8.10;;;9.70;97.20;;;;;;1700800;29;20665;-69
2023/04/05 07:57:16;;;;;;;9.55;8.35;;;9.80;97.20;;;;;;1700683;29;20483;-69
2023/04/05 07:58:09;;;;;;;9.10;8.10;;;9.90;97.20;;;;;;1700225;29;20577;-69
2023/04/05 07:59:00;;;;;;;10.00;8.63;;;9.90;97.20;;;;;;1700734;29;20211;-69
2023/04/05 07:59:54;;;;;;;11.00;9.17;;;10.00;97.20;;;;;;1700775;29;20211;-69
2023/04/05 08:00:45;;;;;;;9.73;8.70;;;10.00;97.20;;;;;;1700666;29;20317;-69
2023/04/05 08:01:37;;;;;;;9.50;8.67;;;10.10;97.20;;;;;;1700828;29;20463;-69
2023/04/05 08:02:27;;;;;;;10.85;9.27;;;10.10;97.20;;;;;;1700694;29;20447;-69
2023/04/05 08:03:19;;;;;;;9.90;8.07;;;10.10;97.20;;;;;;1700541;29;20205;-69
2023/04/05 08:04:10;;;;;;;9.93;8.93;;;10.20;97.20;;;;;;1700828;29;20793;-69
2023/04/05 08:05:02;;;;;;;11.23;9.67;;;10.20;97.20;;;;;;1700854;29;20748;-69
2023/04/05 08:05:53;;;;;;;11.07;9.00;;;10.20;97.20;;;;;;1701657;29;20556;-69
2023/04/05 08:06:47;;;;;;;9.53;8.63;;;10.30;97.20;;;;;;1700683;29;20480;-69
2023/04/05 08:07:37;;;;;;;9.52;8.63;;;10.30;97.20;;;;;;1700663;29;20219;-69
2023/04/05 08:08:29;;;;;;;9.40;8.60;;;10.40;97.20;;;;;;1700196;29;20213;-69
2023/04/05 08:09:21;;;;;;;9.73;8.73;;;10.40;97.20;;;;;;1700681;29;20358;-69
2023/04/05 08:10:12;;;;;;;8.65;7.95;;;10.50;97.20;;;;;;1700643;29;20618;-69
2023/04/05 08:11:03;;;;;;;8.80;7.97;;;10.50;97.20;;;;;;1700746;29;20543;-69
2023/04/05 08:11:56;;;;;;;9.30;7.50;;;10.50;97.20;;;;;;1700723;29;20596;-69
2023/04/05 08:12:47;;;;;;;8.68;7.78;;;10.60;97.20;;;;;;1700432;29;20196;-69
2023/04/05 08:13:40;;;;;;;8.55;7.75;;;10.60;97.20;;;;;;1700688;29;20242;-69
2023/04/05 08:14:32;;;;;;;9.05;8.15;;;10.70;97.20;;;;;;1700820;29;20519;-69
2023/04/05 08:15:22;;;;;;;8.38;7.45;;;10.70;97.20;;;;;;1700637;29;20218;-70
2023/04/05 08:16:14;;;;;;;8.50;7.70;;;10.70;97.20;;;;;;1700623;29;20301;-69
2023/04/05 08:17:05;;;;;;;8.10;7.28;;;10.80;97.20;;;;;;1700598;29;20206;-69
2023/04/05 08:17:57;;;;;;;8.57;7.77;;;10.80;97.20;;;;;;1700680;29;20213;-69
2023/04/05 08:18:47;;;;;;;8.35;7.60;;;10.80;97.20;;;;;;1700240;29;20870;-69
2023/04/05 08:19:39;;;;;;;7.77;7.03;;;10.90;97.20;;;;;;1700551;29;20592;-69
2023/04/05 08:20:30;;;;;;;9.63;6.95;;;10.90;97.20;;;;;;1700494;29;20362;-69
2023/04/05 08:21:22;;;;;;;8.20;7.30;;;10.90;97.20;;;;;;1700635;29;20262;-69
2023/04/05 08:22:16;;;;;;;7.65;6.90;;;11.00;97.20;;;;;;1700638;29;20254;-69
2023/04/05 08:23:07;;;;;;;8.43;6.97;;;11.00;97.20;;;;;;1701470;29;20658;-69
2023/04/05 08:23:59;;;;;;;7.10;6.50;;;11.10;97.20;;;;;;1700650;29;20564;-69
2023/04/05 08:24:50;;;;;;;7.35;6.65;;;11.10;97.20;;;;;;1700656;29;20306;-69
2023/04/05 08:25:42;;;;;;;7.83;7.03;;;11.10;97.20;;;;;;1700645;29;20207;-69
2023/04/05 08:26:33;;;;;;;7.65;6.90;;;11.10;97.20;;;;;;1700678;29;20218;-69
2023/04/05 08:27:24;;;;;;;7.60;6.90;;;11.10;97.20;;;;;;1700650;29;20206;-69
2023/04/05 08:28:15;;;;;;;8.50;6.68;;;11.10;97.20;;;;;;1700085;29;20206;-69
2023/04/05 08:29:07;;;;;;;7.77;7.07;;;11.10;97.20;;;;;;1700641;29;20201;-69
2023/04/05 08:29:58;;;;;;;8.32;7.20;;;11.20;97.20;;;;;;1700546;29;20210;-69
2023/04/05 08:30:53;;;;;;;6.97;6.23;;;11.20;97.20;;;;;;1700600;29;20227;-69
2023/04/05 08:31:43;;;;;;;9.75;6.65;;;11.20;97.20;;;;;;1700637;29;20568;-69
2023/04/05 08:32:35;;;;;;;8.00;7.17;;;11.30;97.20;;;;;;1700470;29;20221;-69
2023/04/05 08:33:29;;;;;;;8.20;6.75;;;11.40;97.20;;;;;;1700647;29;20587;-69
2023/04/05 08:34:21;;;;;;;7.60;6.80;;;11.50;97.20;;;;;;1700587;29;20203;-69
2023/04/05 08:35:13;;;;;;;7.00;6.40;;;11.60;97.20;;;;;;1700637;29;20235;-69
2023/04/05 08:36:04;;;;;;;7.35;6.65;;;11.70;97.20;;;;;;1700697;29;20207;-69
2023/04/05 08:36:58;;;;;;;7.47;6.78;;;11.80;97.20;;;;;;1700624;29;20230;-69
2023/04/05 08:37:50;;;;;;;7.05;6.35;;;11.90;97.20;;;;;;1700676;29;20677;-69
2023/04/05 08:38:42;;;;;;;7.82;6.75;;;12.00;97.20;;;;;;1700070;29;20576;-69
2023/04/05 08:39:34;;;;;;;7.53;6.88;;;12.10;97.20;;;;;;1702435;29;20214;-69
2023/04/05 08:40:35;;;;;;;8.38;6.70;;;12.20;97.20;;;;;;1707132;29;20283;-69
2023/04/05 08:41:34;;;;;;;7.30;6.60;;;12.30;97.20;;;;;;1707363;28;20657;-69
2023/04/05 08:42:32;;;;;;;8.55;6.22;;;12.40;97.20;;;;;;1707175;28;20206;-69
2023/04/05 08:43:43;;;;;;;6.68;5.97;;;12.50;97.20;;;;;;1707099;29;20211;-69
2023/04/05 08:44:37;;;;;;;7.38;6.68;;;12.60;97.20;;;;;;1707207;29;20290;-69
2023/04/05 08:45:29;;;;;;;7.80;6.63;;;12.60;97.20;;;;;;1707183;29;20261;-69
2023/04/05 08:46:22;;;;;;;8.10;7.30;;;12.70;97.20;;;;;;1707150;29;20198;-69
2023/04/05 08:47:17;;;;;;;8.43;6.63;;;12.70;97.20;;;;;;1707179;29;20209;-69
2023/04/05 08:48:09;;;;;;;6.75;6.15;;;12.80;97.20;;;;;;1706804;29;20260;-69
2023/04/05 08:49:04;;;;;;;7.28;6.07;;;12.80;97.20;;;;;;1707186;29;20206;-69
2023/04/05 08:49:56;;;;;;;6.90;6.18;;;12.90;97.20;;;;;;1707078;29;20212;-69
2023/04/05 08:50:51;;;;;;;6.43;5.72;;;12.90;97.20;;;;;;1707164;29;20237;-69
2023/04/05 08:51:42;;;;;;;6.88;6.20;;;13.00;97.20;;;;;;1707244;29;20210;-69
2023/04/05 08:52:37;;;;;;;6.80;6.15;;;13.00;97.20;;;;;;1706973;29;20230;-69
2023/04/05 08:53:30;;;;;;;6.70;5.95;;;13.10;97.20;;;;;;1707176;28;20206;-69
2023/04/05 08:54:21;;;;;;;6.95;6.20;;;13.20;97.20;;;;;;1704364;29;20222;-69
2023/04/05 08:55:13;;;;;;;7.20;6.50;;;13.30;97.20;;;;;;1701983;29;20238;-69
2023/04/05 08:56:05;;;;;;;6.35;5.78;;;13.30;97.20;;;;;;1701901;29;20215;-69
2023/04/05 08:56:59;;;;;;;8.82;5.90;;;13.40;97.20;;;;;;1701859;29;20209;-69
2023/04/05 08:57:57;;;;;;;8.45;7.03;;;13.50;97.20;;;;;;1701925;29;20318;-69
2023/04/05 08:58:57;;;;;;;6.88;6.28;;;13.50;97.20;;;;;;1701441;29;20225;-69
2023/04/05 08:59:48;;;;;;;6.10;5.60;;;13.60;97.20;;;;;;1701863;29;20673;-69
2023/04/05 09:00:41;;;;;;;8.40;6.63;;;13.70;97.20;;;;;;1701811;29;20571;-69
2023/04/05 09:01:35;;;;;;;7.85;5.95;;;13.70;97.20;;;;;;1701981;29;20829;-69
2023/04/05 09:02:28;;;;;;;8.00;6.32;;;13.80;97.20;;;;;;1701903;29;20207;-69
2023/04/05 09:03:21;;;;;;;5.65;5.13;;;13.80;97.20;;;;;;1701661;29;20211;-69
2023/04/05 09:04:17;;;;;;;6.20;5.20;;;13.90;97.20;;;;;;1701900;29;20290;-69
2023/04/05 09:05:10;;;;;;;8.07;6.15;;;13.90;96.60;;;;;;1701944;29;20227;-69
2023/04/05 09:06:06;;;;;;;6.63;5.47;;;14.00;96.00;;;;;;1701793;29;20203;-69
2023/04/05 09:06:58;;;;;;;9.23;5.47;;;14.00;95.80;;;;;;1701894;29;20290;-69
2023/04/05 09:07:50;;;;;;;8.00;6.15;;;14.00;95.60;;;;;;1701904;29;20323;-69
2023/04/05 09:08:44;;;;;;;6.28;5.68;;;14.00;95.90;;;;;;1705632;29;20203;-69
2023/04/05 09:09:36;;;;;;;8.63;6.75;;;14.00;96.20;;;;;;1708287;29;20206;-69
2023/04/05 09:10:29;;;;;;;6.03;5.43;;;14.10;96.20;;;;;;1708337;29;20202;-69
2023/04/05 09:11:20;;;;;;;6.80;6.18;;;14.10;96.20;;;;;;1708385;29;20210;-69
2023/04/05 09:12:12;;;;;;;7.17;5.80;;;14.20;95.60;;;;;;1708497;28;20206;-69
2023/04/05 09:13:03;;;;;;;9.10;5.72;;;14.20;95.70;;;;;;1708209;28;20207;-69
2023/04/05 09:13:55;;;;;;;4.80;4.40;;;14.30;95.80;;;;;;1708448;29;20289;-69
2023/04/05 09:14:47;;;;;;;6.10;5.55;;;14.40;95.30;;;;;;1708398;29;20224;-69
2023/04/05 09:15:40;;;;;;;6.32;5.70;;;14.40;94.30;;;;;;1708369;29;20206;-69
2023/04/05 09:16:34;;;;;;;6.60;6.00;;;14.50;94.10;;;;;;1708405;29;20202;-69
2023/04/05 09:17:27;;;;;;;6.35;5.72;;;14.50;93.30;;;;;;1708284;29;20203;-69
2023/04/05 09:18:18;;;;;;;5.50;5.00;;;14.50;93.30;;;;;;1707801;29;20202;-69
2023/04/05 09:19:10;;;;;;;7.50;5.70;;;14.50;93.60;;;;;;1708356;28;20204;-69
2023/04/05 09:20:01;;;;;;;6.22;5.65;;;14.60;93.80;;;;;;1708241;29;20199;-69
2023/04/05 09:20:57;;;;;;;6.13;5.60;;;14.60;93.60;;;;;;1708339;29;20232;-69
2023/04/05 09:21:57;;;;;;;6.10;5.60;;;14.60;93.30;;;;;;1708448;29;20465;-69
2023/04/05 09:22:49;;;;;;;6.20;5.60;;;14.60;92.10;;;;;;1704124;29;20222;-68
2023/04/05 09:23:52;;;;;;;6.25;5.65;;;14.60;92.40;;;;;;1701794;29;20203;-68
2023/04/05 09:24:45;;;;;;;6.82;6.22;;;14.60;92.10;;;;;;1701686;29;20200;-69
2023/04/05 09:25:38;;;;;;;9.18;6.60;;;14.60;92.00;;;;;;1701706;29;20207;-68
2023/04/05 09:26:30;;;;;;;8.18;6.60;;;14.60;92.10;;;;;;1701756;29;20368;-68
2023/04/05 09:27:21;;;;;;;7.00;6.10;;;14.60;91.80;;;;;;1701709;29;20207;-68
2023/04/05 09:28:12;;;;;;;7.57;6.57;;;14.60;92.40;;;;;;1701226;29;20593;-69
2023/04/05 09:29:03;;;;;;;6.65;5.93;;;14.60;92.60;;;;;;1701625;29;20214;-69
2023/04/05 09:29:55;;;;;;;7.00;5.70;;;14.70;93.20;;;;;;1701818;29;20203;-68
2023/04/05 09:30:46;;;;;;;6.00;5.50;;;14.70;92.40;;;;;;1701685;29;20230;-68
2023/04/05 09:31:37;;;;;;;6.03;4.77;;;14.80;91.80;;;;;;1701881;29;20209;-68